createdAt,value
2019-04-06T00:00:49.642Z,99.99
2019-04-06T00:01:49.553Z,99.99
2019-04-06T00:03:42.392Z,99.99
2019-04-06T00:04:42.306Z,99.99
2019-04-06T00:06:35.192Z,99.99
2019-04-06T00:07:35.109Z,99.99
2019-04-06T00:09:27.890Z,99.99
2019-04-06T00:10:27.819Z,99.99
2019-04-06T00:12:20.599Z,99.99
2019-04-06T00:13:20.519Z,99.99
2019-04-06T00:15:13.375Z,99.99
2019-04-06T00:16:13.281Z,99.99
2019-04-06T00:18:06.095Z,99.99
2019-04-06T00:19:05.978Z,99.99
2019-04-06T00:20:58.757Z,99.99
2019-04-06T00:21:58.701Z,99.99
2019-04-06T00:23:51.470Z,99.99
2019-04-06T00:24:51.396Z,99.99
2019-04-06T00:26:44.191Z,99.99
2019-04-06T00:27:44.098Z,99.99
2019-04-06T00:29:36.886Z,99.99
2019-04-06T00:30:36.812Z,99.99
2019-04-06T00:32:29.604Z,99.99
2019-04-06T00:33:29.576Z,99.99
2019-04-06T00:35:22.296Z,99.99
2019-04-06T00:36:22.231Z,99.99
2019-04-06T00:38:15.050Z,99.99
2019-04-06T00:39:14.980Z,99.99
2019-04-06T00:41:07.830Z,99.99
2019-04-06T00:42:07.680Z,99.99
2019-04-06T00:44:00.523Z,99.99
2019-04-06T00:45:00.442Z,99.99
2019-04-06T00:46:53.204Z,99.99
2019-04-06T00:47:53.139Z,99.99
2019-04-06T00:49:45.934Z,99.99
2019-04-06T00:50:45.847Z,99.99
2019-04-06T00:52:38.718Z,99.99
2019-04-06T00:53:38.583Z,99.99
2019-04-06T00:55:31.378Z,99.99
2019-04-06T00:56:31.283Z,99.99
2019-04-06T00:58:24.080Z,99.99
2019-04-06T00:59:24.008Z,99.99
2019-04-06T01:01:16.767Z,99.99
2019-04-06T01:02:16.706Z,99.99
2019-04-06T01:04:09.785Z,99.99
2019-04-06T01:05:09.505Z,99.99
2019-04-06T01:07:02.304Z,99.99
2019-04-06T01:08:02.248Z,99.99
2019-04-06T01:09:55.049Z,99.99
2019-04-06T01:10:54.955Z,99.99
2019-04-06T01:12:47.736Z,99.99
2019-04-06T01:13:47.662Z,99.99
2019-04-06T01:15:40.454Z,99.99
2019-04-06T01:16:40.375Z,99.99
2019-04-06T01:18:33.187Z,99.99
2019-04-06T01:19:33.095Z,99.99
2019-04-06T01:21:25.861Z,99.99
2019-04-06T01:22:25.821Z,99.99
2019-04-06T01:24:18.587Z,99.99
2019-04-06T01:25:18.488Z,99.99
2019-04-06T01:27:11.267Z,99.99
2019-04-06T01:28:11.187Z,99.99
2019-04-06T01:30:04.089Z,99.99
2019-04-06T01:31:03.916Z,99.99
2019-04-06T01:32:56.713Z,99.99
2019-04-06T01:33:58.918Z,99.99
2019-04-06T01:35:49.396Z,99.99
2019-04-06T01:36:49.337Z,99.99
2019-04-06T01:38:42.104Z,99.99
2019-04-06T01:39:42.055Z,99.99
2019-04-06T01:41:34.801Z,99.99
2019-04-06T01:42:34.842Z,99.99
2019-04-06T01:44:27.522Z,99.99
2019-04-06T01:45:27.431Z,99.99
2019-04-06T01:47:20.222Z,99.99
2019-04-06T01:48:20.163Z,99.99
2019-04-06T01:50:13.020Z,99.99
2019-04-06T01:51:12.928Z,99.99
2019-04-06T01:53:05.739Z,99.99
2019-04-06T01:54:05.635Z,99.99
2019-04-06T01:56:19.522Z,99.99
2019-04-06T01:57:19.450Z,99.99
2019-04-06T01:59:12.294Z,99.99
2019-04-06T02:00:12.206Z,99.99
2019-04-06T02:02:04.999Z,99.99
2019-04-06T02:03:04.942Z,99.99
2019-04-06T02:04:57.772Z,99.99
2019-04-06T02:05:57.702Z,99.99
2019-04-06T02:07:50.567Z,99.99
2019-04-06T02:08:50.483Z,99.99
2019-04-06T02:10:43.307Z,99.99
2019-04-06T02:11:43.231Z,99.99
2019-04-06T02:13:36.050Z,99.99
2019-04-06T02:14:36.019Z,99.99
2019-04-06T02:16:28.860Z,99.99
2019-04-06T02:17:28.663Z,99.99
2019-04-06T02:19:21.433Z,99.99
2019-04-06T02:20:21.361Z,99.99
2019-04-06T02:22:14.154Z,99.99
2019-04-06T02:23:14.088Z,99.99
2019-04-06T02:25:06.899Z,99.99
2019-04-06T02:26:06.809Z,99.99
2019-04-06T02:27:59.606Z,99.99
2019-04-06T02:28:59.505Z,99.99
2019-04-06T02:30:52.289Z,99.99
2019-04-06T02:31:52.232Z,99.99
2019-04-06T02:33:45.045Z,99.99
2019-04-06T02:34:44.965Z,99.99
2019-04-06T02:36:37.778Z,99.99
2019-04-06T02:37:37.678Z,99.99
2019-04-06T02:39:30.576Z,99.99
2019-04-06T02:40:30.432Z,99.99
2019-04-06T02:42:23.306Z,99.99
2019-04-06T02:43:23.206Z,99.99
2019-04-06T02:45:16.052Z,99.99
2019-04-06T02:46:15.968Z,99.99
2019-04-06T02:48:08.796Z,99.99
2019-04-06T02:49:08.723Z,99.99
2019-04-06T02:51:01.518Z,99.99
2019-04-06T02:52:01.583Z,99.99
2019-04-06T02:53:54.255Z,99.99
2019-04-06T02:54:54.175Z,99.99
2019-04-06T02:56:47.931Z,99.99
2019-04-06T02:57:46.913Z,99.99
2019-04-06T02:59:39.706Z,99.99
2019-04-06T03:00:39.617Z,99.99
2019-04-06T03:02:32.512Z,99.99
2019-04-06T03:03:32.328Z,99.99
2019-04-06T03:05:25.200Z,99.99
2019-04-06T03:06:25.044Z,99.99
2019-04-06T03:08:17.832Z,99.99
2019-04-06T03:09:17.773Z,99.99
2019-04-06T03:11:10.557Z,99.99
2019-04-06T03:12:10.463Z,99.99
2019-04-06T03:14:03.300Z,99.99
2019-04-06T03:15:03.198Z,99.99
2019-04-06T03:16:56.449Z,99.99
2019-04-06T03:17:56.377Z,99.99
2019-04-06T03:19:49.258Z,99.99
2019-04-06T03:20:49.155Z,99.99
2019-04-06T03:22:41.026Z,99.99
2019-04-06T03:23:50.365Z,99.99
2019-04-06T03:25:33.816Z,99.99
2019-04-06T03:26:33.729Z,99.99
2019-04-06T03:28:26.534Z,99.99
2019-04-06T03:29:26.604Z,99.99
2019-04-06T03:31:24.373Z,99.99
2019-04-06T03:32:19.193Z,99.99
2019-04-06T03:34:12.362Z,99.99
2019-04-06T03:35:12.159Z,99.99
2019-04-06T03:37:04.680Z,99.99
2019-04-06T03:38:04.599Z,99.99
2019-04-06T03:39:57.363Z,99.99
2019-04-06T03:40:57.286Z,99.99
2019-04-06T03:42:50.099Z,99.99
2019-04-06T03:43:49.986Z,99.99
2019-04-06T03:45:42.774Z,99.99
2019-04-06T03:46:42.707Z,99.99
2019-04-06T03:48:35.547Z,99.99
2019-04-06T03:49:35.452Z,99.99
2019-04-06T03:51:28.386Z,99.99
2019-04-06T03:52:28.157Z,99.99
2019-04-06T03:54:20.965Z,99.99
2019-04-06T03:55:20.898Z,99.99
2019-04-06T03:57:16.802Z,99.99
2019-04-06T03:58:13.699Z,99.99
2019-04-06T04:00:06.401Z,99.99
2019-04-06T04:01:06.317Z,99.99
2019-04-06T04:02:59.123Z,99.99
2019-04-06T04:03:59.146Z,99.99
2019-04-06T04:05:51.835Z,99.99
2019-04-06T04:06:51.771Z,99.99
2019-04-06T04:08:44.518Z,99.99
2019-04-06T04:09:44.449Z,99.99
2019-04-06T04:11:37.247Z,99.99
2019-04-06T04:12:37.170Z,99.99
2019-04-06T04:14:29.939Z,99.99
2019-04-06T04:15:29.866Z,99.99
2019-04-06T04:17:22.936Z,99.99
2019-04-06T04:18:22.617Z,99.99
2019-04-06T04:20:15.416Z,99.99
2019-04-06T04:21:15.393Z,99.99
2019-04-06T04:23:08.120Z,99.99
2019-04-06T04:24:08.040Z,99.99
2019-04-06T04:26:00.843Z,99.99
2019-04-06T04:27:00.752Z,99.99
2019-04-06T04:28:53.741Z,99.99
2019-04-06T04:29:53.547Z,99.99
2019-04-06T04:31:46.234Z,99.99
2019-04-06T04:32:46.193Z,99.99
2019-04-06T04:34:38.936Z,99.99
2019-04-06T04:35:38.923Z,99.99
2019-04-06T04:37:31.772Z,99.99
2019-04-06T04:38:31.780Z,99.99
2019-04-06T04:40:24.541Z,99.99
2019-04-06T04:41:24.495Z,99.99
2019-04-06T04:43:17.215Z,99.99
2019-04-06T04:44:17.135Z,99.99
2019-04-06T04:46:09.919Z,99.99
2019-04-06T04:47:09.847Z,99.99
2019-04-06T04:49:02.634Z,99.99
2019-04-06T04:50:02.596Z,99.99
2019-04-06T04:51:55.355Z,99.99
2019-04-06T04:52:55.261Z,99.99
2019-04-06T04:54:48.035Z,99.99
2019-04-06T04:55:47.965Z,99.99
2019-04-06T04:57:41.972Z,99.99
2019-04-06T04:58:40.677Z,99.99
2019-04-06T05:00:33.444Z,99.99
2019-04-06T05:01:33.375Z,99.99
2019-04-06T05:03:26.185Z,99.99
2019-04-06T05:04:26.100Z,99.99
2019-04-06T05:06:19.145Z,99.99
2019-04-06T05:07:18.900Z,99.99
2019-04-06T05:09:11.674Z,99.99
2019-04-06T05:10:11.599Z,99.99
2019-04-06T05:12:04.390Z,99.99
2019-04-06T05:13:04.534Z,99.99
2019-04-06T05:14:57.075Z,99.99
2019-04-06T05:15:57.013Z,99.99
2019-04-06T05:17:49.803Z,99.99
2019-04-06T05:18:49.723Z,99.99
2019-04-06T05:20:42.835Z,99.99
2019-04-06T05:21:42.430Z,99.99
2019-04-06T05:23:35.388Z,99.99
2019-04-06T05:24:35.201Z,99.99
2019-04-06T05:26:37.144Z,99.99
2019-04-06T05:27:28.052Z,99.99
2019-04-06T05:29:20.610Z,99.99
2019-04-06T05:30:20.542Z,99.99
2019-04-06T05:32:13.350Z,99.99
2019-04-06T05:33:13.487Z,99.99
2019-04-06T05:35:06.306Z,99.99
2019-04-06T05:36:05.985Z,99.99
2019-04-06T05:37:58.971Z,99.99
2019-04-06T05:38:58.728Z,99.99
2019-04-06T05:40:51.527Z,99.99
2019-04-06T05:41:51.435Z,99.99
2019-04-06T05:43:44.302Z,99.99
2019-04-06T05:44:44.187Z,99.99
2019-04-06T05:46:37.029Z,99.99
2019-04-06T05:47:37.011Z,99.99
2019-04-06T05:49:29.787Z,99.99
2019-04-06T05:50:29.722Z,99.99
2019-04-06T05:52:22.633Z,99.99
2019-04-06T05:53:22.432Z,99.99
2019-04-06T05:55:15.214Z,99.99
2019-04-06T05:56:15.145Z,99.99
2019-04-06T05:58:10.649Z,99.99
2019-04-06T05:59:10.066Z,99.99
2019-04-06T06:01:00.651Z,99.99
2019-04-06T06:02:00.667Z,99.99
2019-04-06T06:03:53.382Z,99.99
2019-04-06T06:04:53.320Z,99.99
2019-04-06T06:06:46.159Z,99.99
2019-04-06T06:07:46.038Z,99.99
2019-04-06T06:09:38.887Z,99.99
2019-04-06T06:10:38.762Z,99.99
2019-04-06T06:12:31.545Z,99.99
2019-04-06T06:13:31.673Z,99.99
2019-04-06T06:15:24.240Z,99.99
2019-04-06T06:16:24.177Z,99.99
2019-04-06T06:18:25.628Z,99.99
2019-04-06T06:19:16.889Z,99.99
2019-04-06T06:21:10.384Z,99.99
2019-04-06T06:22:10.418Z,99.99
2019-04-06T06:24:02.987Z,99.99
2019-04-06T06:25:03.174Z,99.99
2019-04-06T06:26:55.718Z,98.95
2019-04-06T06:27:55.649Z,97.52
2019-04-06T06:29:48.418Z,95.84
2019-04-06T06:30:48.674Z,95.75
2019-04-06T06:32:41.252Z,93.73
2019-04-06T06:33:41.080Z,93.26
2019-04-06T06:35:33.924Z,90.19
2019-04-06T06:36:34.026Z,90.23
2019-04-06T06:38:26.627Z,87.63
2019-04-06T06:39:26.521Z,85.42
2019-04-06T06:41:19.326Z,85.38
2019-04-06T06:42:19.459Z,85.52
2019-04-06T06:44:12.046Z,84.08
2019-04-06T06:45:12.000Z,84.47
2019-04-06T06:47:04.801Z,82.31
2019-04-06T06:48:04.720Z,84.04
2019-04-06T06:49:57.579Z,85.48
2019-04-06T06:50:57.535Z,86.01
2019-04-06T06:52:50.348Z,85.10
2019-04-06T06:53:50.279Z,84.47
2019-04-06T06:55:43.421Z,83.22
2019-04-06T06:56:43.075Z,82.93
2019-04-06T06:58:35.946Z,83.65
2019-04-06T06:59:35.783Z,83.85
2019-04-06T07:01:28.565Z,83.07
2019-04-06T07:02:28.588Z,81.67
2019-04-06T07:04:21.263Z,79.15
2019-04-06T07:05:21.183Z,78.00
2019-04-06T07:07:14.000Z,77.81
2019-04-06T07:08:13.952Z,77.75
2019-04-06T07:10:06.776Z,75.38
2019-04-06T07:11:06.713Z,74.99
2019-04-06T07:12:59.627Z,74.10
2019-04-06T07:13:59.506Z,73.88
2019-04-06T07:15:52.197Z,73.58
2019-04-06T07:16:52.269Z,73.55
2019-04-06T07:18:45.274Z,74.96
2019-04-06T07:19:44.885Z,75.69
2019-04-06T07:21:37.791Z,76.11
2019-04-06T07:22:37.578Z,75.82
2019-04-06T07:24:30.460Z,74.51
2019-04-06T07:25:30.355Z,73.84
2019-04-06T07:27:23.112Z,73.88
2019-04-06T07:28:23.028Z,73.20
2019-04-06T07:30:15.928Z,72.75
2019-04-06T07:31:15.756Z,72.56
2019-04-06T07:33:08.581Z,71.95
2019-04-06T07:34:08.495Z,72.43
2019-04-06T07:36:01.308Z,71.89
2019-04-06T07:37:01.241Z,72.24
2019-04-06T07:38:54.117Z,73.84
2019-04-06T07:39:54.044Z,74.55
2019-04-06T07:41:46.856Z,73.30
2019-04-06T07:42:46.766Z,72.68
2019-04-06T07:44:39.581Z,74.38
2019-04-06T07:45:39.658Z,74.38
2019-04-06T07:47:32.329Z,74.96
2019-04-06T07:48:32.264Z,75.05
2019-04-06T07:50:25.068Z,74.03
2019-04-06T07:51:25.003Z,73.01
2019-04-06T07:53:17.804Z,72.30
2019-04-06T07:54:17.721Z,72.74
2019-04-06T07:56:10.566Z,74.44
2019-04-06T07:57:10.454Z,74.79
2019-04-06T07:59:03.328Z,74.86
2019-04-06T08:00:03.265Z,75.05
2019-04-06T08:01:56.089Z,73.36
2019-04-06T08:02:55.983Z,73.65
2019-04-06T08:04:48.810Z,72.08
2019-04-06T08:05:48.893Z,71.22
2019-04-06T08:07:41.568Z,70.70
2019-04-06T08:08:41.477Z,69.68
2019-04-06T08:10:34.314Z,68.43
2019-04-06T08:11:34.509Z,66.97
2019-04-06T08:13:27.063Z,69.13
2019-04-06T08:14:26.975Z,69.19
2019-04-06T08:16:19.770Z,70.64
2019-04-06T08:17:19.712Z,70.41
2019-04-06T08:19:12.593Z,70.54
2019-04-06T08:20:12.707Z,69.67
2019-04-06T08:22:05.337Z,69.51
2019-04-06T08:23:05.478Z,69.71
2019-04-06T08:24:58.074Z,68.19
2019-04-06T08:25:58.022Z,67.91
2019-04-06T08:27:50.836Z,68.39
2019-04-06T08:28:59.675Z,68.26
2019-04-06T08:30:46.370Z,69.38
2019-04-06T08:31:43.585Z,69.96
2019-04-06T08:33:36.484Z,70.54
2019-04-06T08:34:36.381Z,70.41
2019-04-06T08:36:29.285Z,70.74
2019-04-06T08:37:29.188Z,68.84
2019-04-06T08:39:22.017Z,65.92
2019-04-06T08:40:21.951Z,64.27
2019-04-06T08:42:14.750Z,64.21
2019-04-06T08:43:14.679Z,64.62
2019-04-06T08:45:07.479Z,63.63
2019-04-06T08:46:07.429Z,65.34
2019-04-06T08:48:00.263Z,65.95
2019-04-06T08:49:00.217Z,65.72
2019-04-06T08:50:53.045Z,65.66
2019-04-06T08:51:52.956Z,65.01
2019-04-06T08:53:45.765Z,65.91
2019-04-06T08:54:45.705Z,65.47
2019-04-06T08:56:39.128Z,63.85
2019-04-06T08:57:38.487Z,64.05
2019-04-06T08:59:31.458Z,63.31
2019-04-06T09:00:31.227Z,63.14
2019-04-06T09:02:24.719Z,63.66
2019-04-06T09:03:24.025Z,64.56
2019-04-06T09:05:16.893Z,64.98
2019-04-06T09:06:16.822Z,64.86
2019-04-06T09:08:09.728Z,65.11
2019-04-06T09:09:09.773Z,64.18
2019-04-06T09:11:02.652Z,63.89
2019-04-06T09:12:02.421Z,62.92
2019-04-06T09:13:55.368Z,63.11
2019-04-06T09:14:55.536Z,63.18
2019-04-06T09:16:48.110Z,62.37
2019-04-06T09:17:48.065Z,62.44
2019-04-06T09:19:41.011Z,62.50
2019-04-06T09:20:40.844Z,62.82
2019-04-06T09:22:33.872Z,62.21
2019-04-06T09:23:33.787Z,61.27
2019-04-06T09:25:26.591Z,60.36
2019-04-06T09:26:26.530Z,59.13
2019-04-06T09:28:19.525Z,58.00
2019-04-06T09:29:23.822Z,58.04
2019-04-06T09:31:12.162Z,58.36
2019-04-06T09:32:12.179Z,58.06
2019-04-06T09:34:04.982Z,58.00
2019-04-06T09:35:04.896Z,56.97
2019-04-06T09:36:57.730Z,59.46
2019-04-06T09:37:57.685Z,59.53
2019-04-06T09:39:50.523Z,59.49
2019-04-06T09:40:50.759Z,58.42
2019-04-06T09:42:43.268Z,59.89
2019-04-06T09:43:43.325Z,60.75
2019-04-06T09:45:36.035Z,60.24
2019-04-06T09:46:35.980Z,59.49
2019-04-06T09:48:28.761Z,57.19
2019-04-06T09:49:28.700Z,58.06
2019-04-06T09:51:21.626Z,58.09
2019-04-06T09:52:21.449Z,57.09
2019-04-06T09:54:14.257Z,56.01
2019-04-06T09:55:14.188Z,55.96
2019-04-06T09:57:06.996Z,56.03
2019-04-06T09:58:06.944Z,55.67
2019-04-06T09:59:59.775Z,55.69
2019-04-06T10:00:59.717Z,55.35
2019-04-06T10:02:52.560Z,56.87
2019-04-06T10:03:52.443Z,57.09
2019-04-06T10:05:45.321Z,56.11
2019-04-06T10:06:45.202Z,54.68
2019-04-06T10:08:38.024Z,55.47
2019-04-06T10:09:38.104Z,55.93
2019-04-06T10:11:30.729Z,56.90
2019-04-06T10:12:30.682Z,57.51
2019-04-06T10:14:23.500Z,55.35
2019-04-06T10:15:23.424Z,56.81
2019-04-06T10:17:16.250Z,56.65
2019-04-06T10:18:16.208Z,56.82
2019-04-06T10:20:09.036Z,58.63
2019-04-06T10:21:08.961Z,58.78
2019-04-06T10:23:01.759Z,56.81
2019-04-06T10:24:02.128Z,55.44
2019-04-06T10:25:54.510Z,54.17
2019-04-06T10:26:54.451Z,53.88
2019-04-06T10:28:47.547Z,53.03
2019-04-06T10:29:49.632Z,52.35
2019-04-06T10:31:39.979Z,52.56
2019-04-06T10:32:39.939Z,53.55
2019-04-06T10:34:32.797Z,57.01
2019-04-06T10:35:32.735Z,55.78
2019-04-06T10:37:25.665Z,54.58
2019-04-06T10:38:25.477Z,53.97
2019-04-06T10:40:18.316Z,55.98
2019-04-06T10:41:18.334Z,56.00
2019-04-06T10:43:11.055Z,55.04
2019-04-06T10:44:10.940Z,54.86
2019-04-06T10:46:03.766Z,53.61
2019-04-06T10:47:03.714Z,53.92
2019-04-06T10:48:56.741Z,53.58
2019-04-06T10:49:56.443Z,54.49
2019-04-06T10:51:49.431Z,54.71
2019-04-06T10:52:49.364Z,54.37
2019-04-06T10:54:42.286Z,55.30
2019-04-06T10:55:42.140Z,54.95
2019-04-06T10:57:34.920Z,56.79
2019-04-06T10:58:35.093Z,56.79
2019-04-06T11:00:27.670Z,58.18
2019-04-06T11:01:27.593Z,59.31
2019-04-06T11:03:20.447Z,60.16
2019-04-06T11:04:20.470Z,60.22
2019-04-06T11:06:13.127Z,61.09
2019-04-06T11:07:13.046Z,61.09
2019-04-06T11:09:05.910Z,59.64
2019-04-06T11:10:05.853Z,60.19
2019-04-06T11:11:58.784Z,60.68
2019-04-06T11:12:58.542Z,61.35
2019-04-06T11:14:51.466Z,61.44
2019-04-06T11:15:51.318Z,62.60
2019-04-06T11:17:44.220Z,61.71
2019-04-06T11:18:44.088Z,62.38
2019-04-06T11:20:36.844Z,62.18
2019-04-06T11:21:36.827Z,60.83
2019-04-06T11:23:30.455Z,61.80
2019-04-06T11:24:30.430Z,62.18
2019-04-06T11:26:23.378Z,62.18
2019-04-06T11:27:23.249Z,62.18
2019-04-06T11:29:15.934Z,62.09
2019-04-06T11:30:15.854Z,62.66
2019-04-06T11:32:08.853Z,62.18
2019-04-06T11:33:08.581Z,61.80
2019-04-06T11:35:26.041Z,61.77
2019-04-06T11:36:25.914Z,62.25
2019-04-06T11:38:18.735Z,63.06
2019-04-06T11:39:18.640Z,62.76
2019-04-06T11:41:11.461Z,62.18
2019-04-06T11:42:11.562Z,61.90
2019-04-06T11:44:04.261Z,61.80
2019-04-06T11:45:04.349Z,62.22
2019-04-06T11:46:57.012Z,61.35
2019-04-06T11:47:56.936Z,61.32
2019-04-06T11:49:49.911Z,62.09
2019-04-06T11:50:49.723Z,62.96
2019-04-06T11:52:42.474Z,62.79
2019-04-06T11:53:42.416Z,62.38
2019-04-06T11:55:35.184Z,62.57
2019-04-06T11:56:35.166Z,62.48
2019-04-06T11:58:27.980Z,61.99
2019-04-06T11:59:28.253Z,62.48
2019-04-06T12:01:20.758Z,63.24
2019-04-06T12:02:20.638Z,62.22
2019-04-06T12:04:13.456Z,62.12
2019-04-06T12:05:13.439Z,62.31
2019-04-06T12:07:06.702Z,62.41
2019-04-06T12:08:06.943Z,62.31
2019-04-06T12:09:59.557Z,61.74
2019-04-06T12:10:59.753Z,61.61
2019-04-06T12:12:52.660Z,62.22
2019-04-06T12:13:52.254Z,61.86
2019-04-06T12:15:45.180Z,61.09
2019-04-06T12:16:45.028Z,60.89
2019-04-06T12:18:37.938Z,60.48
2019-04-06T12:19:37.861Z,60.28
2019-04-06T12:21:30.667Z,60.35
2019-04-06T12:22:30.565Z,61.64
2019-04-06T12:24:23.542Z,61.83
2019-04-06T12:25:23.492Z,60.89
2019-04-06T12:27:16.126Z,60.41
2019-04-06T12:28:16.075Z,59.83
2019-04-06T12:30:08.975Z,60.31
2019-04-06T12:31:08.836Z,60.22
2019-04-06T12:33:01.659Z,59.64
2019-04-06T12:34:01.619Z,59.45
2019-04-06T12:35:54.483Z,59.42
2019-04-06T12:36:54.439Z,60.10
2019-04-06T12:38:47.137Z,60.86
2019-04-06T12:39:53.364Z,60.58
2019-04-06T12:41:40.441Z,61.03
2019-04-06T12:42:40.023Z,61.32
2019-04-06T12:44:32.849Z,60.74
2019-04-06T12:45:32.726Z,60.86
2019-04-06T12:47:25.532Z,60.96
2019-04-06T12:48:25.435Z,60.93
2019-04-06T12:50:18.397Z,61.54
2019-04-06T12:51:18.289Z,60.86
2019-04-06T12:53:10.942Z,61.35
2019-04-06T12:54:10.890Z,61.54
2019-04-06T12:56:03.689Z,60.89
2019-04-06T12:57:03.594Z,60.80
2019-04-06T12:58:56.398Z,60.99
2019-04-06T12:59:56.318Z,60.80
2019-04-06T13:01:49.160Z,60.96
2019-04-06T13:02:49.029Z,61.74
2019-04-06T13:04:41.815Z,60.41
2019-04-06T13:05:41.750Z,60.71
2019-04-06T13:07:34.609Z,60.31
2019-04-06T13:08:34.548Z,59.83
2019-04-06T13:10:27.347Z,59.64
2019-04-06T13:11:27.411Z,60.31
2019-04-06T13:13:20.131Z,60.28
2019-04-06T13:14:20.336Z,60.58
2019-04-06T13:16:13.171Z,60.96
2019-04-06T13:17:12.768Z,60.19
2019-04-06T13:19:05.567Z,60.77
2019-04-06T13:20:05.705Z,61.35
2019-04-06T13:21:58.481Z,61.28
2019-04-06T13:22:58.319Z,61.38
2019-04-06T13:24:51.189Z,61.38
2019-04-06T13:25:51.101Z,61.19
2019-04-06T13:27:44.384Z,61.09
2019-04-06T13:28:43.816Z,61.67
2019-04-06T13:30:36.683Z,60.58
2019-04-06T13:31:36.836Z,60.19
2019-04-06T13:33:29.305Z,60.41
2019-04-06T13:34:29.348Z,60.41
2019-04-06T13:36:22.723Z,60.13
2019-04-06T13:37:22.283Z,60.31
2019-04-06T13:39:15.011Z,60.03
2019-04-06T13:40:14.930Z,60.13
2019-04-06T13:42:07.828Z,58.97
2019-04-06T13:43:07.661Z,58.10
2019-04-06T13:45:00.510Z,57.90
2019-04-06T13:46:00.474Z,58.00
2019-04-06T13:47:53.367Z,58.10
2019-04-06T13:48:53.489Z,57.71
2019-04-06T13:50:46.170Z,56.65
2019-04-06T13:51:46.220Z,54.91
2019-04-06T13:53:39.245Z,54.72
2019-04-06T13:54:38.919Z,55.30
2019-04-06T13:56:31.765Z,54.55
2019-04-06T13:57:31.678Z,54.55
2019-04-06T13:59:24.482Z,53.39
2019-04-06T14:00:24.472Z,53.11
2019-04-06T14:02:17.370Z,52.72
2019-04-06T14:03:17.118Z,52.72
2019-04-06T14:05:09.967Z,52.21
2019-04-06T14:06:09.901Z,52.21
2019-04-06T14:08:02.800Z,52.79
2019-04-06T14:09:02.614Z,52.31
2019-04-06T14:10:55.398Z,51.44
2019-04-06T14:11:55.323Z,52.31
2019-04-06T14:13:48.143Z,51.73
2019-04-06T14:14:48.152Z,52.69
2019-04-06T14:16:41.248Z,53.08
2019-04-06T14:17:41.190Z,52.98
2019-04-06T14:19:33.679Z,53.08
2019-04-06T14:20:33.673Z,53.75
2019-04-06T14:22:26.746Z,53.25
2019-04-06T14:23:26.573Z,53.53
2019-04-06T14:25:19.464Z,52.89
2019-04-06T14:26:20.029Z,52.89
2019-04-06T14:28:12.213Z,52.89
2019-04-06T14:29:12.096Z,53.08
2019-04-06T14:31:04.966Z,53.08
2019-04-06T14:32:05.587Z,53.08
2019-04-06T14:33:57.628Z,52.89
2019-04-06T14:34:57.559Z,52.86
2019-04-06T14:36:50.639Z,53.25
2019-04-06T14:37:50.302Z,54.02
2019-04-06T14:39:43.177Z,53.53
2019-04-06T14:40:43.026Z,53.25
2019-04-06T14:42:36.108Z,53.83
2019-04-06T14:43:35.785Z,53.83
2019-04-06T14:45:28.977Z,54.69
2019-04-06T14:46:28.610Z,53.73
2019-04-06T14:48:21.324Z,53.44
2019-04-06T14:49:29.453Z,53.85
2019-04-06T14:51:14.049Z,53.05
2019-04-06T14:52:14.077Z,52.19
2019-04-06T14:54:06.862Z,52.09
2019-04-06T14:55:06.751Z,52.95
2019-04-06T14:56:59.592Z,52.57
2019-04-06T14:57:59.532Z,52.86
2019-04-06T14:59:52.439Z,53.34
2019-04-06T15:00:52.258Z,53.73
2019-04-06T15:02:45.065Z,53.34
2019-04-06T15:03:45.196Z,53.92
2019-04-06T15:05:37.756Z,53.34
2019-04-06T15:06:37.680Z,52.76
2019-04-06T15:08:30.508Z,53.22
2019-04-06T15:09:30.448Z,53.70
2019-04-06T15:11:23.203Z,53.15
2019-04-06T15:12:23.887Z,53.05
2019-04-06T15:14:16.010Z,53.34
2019-04-06T15:15:16.037Z,53.41
2019-04-06T15:17:08.692Z,54.66
2019-04-06T15:18:08.607Z,54.69
2019-04-06T15:20:01.426Z,55.34
2019-04-06T15:21:01.642Z,55.54
2019-04-06T15:22:54.505Z,55.56
2019-04-06T15:23:54.094Z,56.33
2019-04-06T15:25:46.872Z,56.30
2019-04-06T15:26:46.814Z,56.01
2019-04-06T15:28:39.782Z,56.01
2019-04-06T15:29:39.814Z,56.40
2019-04-06T15:31:32.619Z,56.59
2019-04-06T15:32:32.306Z,56.88
2019-04-06T15:34:25.208Z,56.79
2019-04-06T15:35:25.455Z,56.49
2019-04-06T15:37:17.925Z,56.98
2019-04-06T15:38:18.097Z,56.79
2019-04-06T15:40:10.804Z,56.79
2019-04-06T15:41:11.135Z,56.30
2019-04-06T15:43:04.020Z,56.69
2019-04-06T15:44:03.512Z,56.21
2019-04-06T15:45:56.453Z,56.49
2019-04-06T15:46:56.463Z,57.07
2019-04-06T15:48:49.066Z,57.46
2019-04-06T15:49:49.083Z,56.98
2019-04-06T15:51:41.862Z,56.98
2019-04-06T15:52:41.722Z,57.17
2019-04-06T15:54:34.693Z,57.72
2019-04-06T15:55:34.455Z,57.85
2019-04-06T15:57:27.257Z,58.04
2019-04-06T15:58:27.198Z,58.72
2019-04-06T16:00:20.187Z,58.33
2019-04-06T16:01:19.952Z,58.11
2019-04-06T16:03:13.098Z,59.10
2019-04-06T16:04:12.694Z,58.97
2019-04-06T16:06:05.505Z,59.07
2019-04-06T16:07:05.717Z,59.65
2019-04-06T16:08:58.274Z,60.23
2019-04-06T16:09:59.154Z,59.75
2019-04-06T16:11:51.224Z,59.84
2019-04-06T16:12:51.061Z,59.75
2019-04-06T16:14:44.001Z,59.94
2019-04-06T16:15:43.957Z,59.55
2019-04-06T16:17:36.729Z,59.45
2019-04-06T16:18:37.085Z,59.94
2019-04-06T16:20:29.493Z,60.03
2019-04-06T16:21:29.422Z,59.65
2019-04-06T16:23:22.427Z,59.62
2019-04-06T16:24:22.176Z,60.32
2019-04-06T16:26:15.162Z,59.72
2019-04-06T16:27:14.993Z,60.00
2019-04-06T16:29:07.843Z,60.00
2019-04-06T16:30:07.710Z,60.10
2019-04-06T16:32:10.849Z,59.91
2019-04-06T16:33:00.431Z,59.81
2019-04-06T16:34:53.315Z,59.72
2019-04-06T16:35:53.738Z,59.52
2019-04-06T16:37:46.029Z,60.39
2019-04-06T16:38:46.395Z,59.72
2019-04-06T16:40:39.242Z,60.00
2019-04-06T16:41:38.698Z,59.59
2019-04-06T16:43:32.353Z,59.43
2019-04-06T16:44:31.506Z,59.43
2019-04-06T16:46:24.228Z,60.30
2019-04-06T16:47:24.168Z,59.97
2019-04-06T16:49:17.331Z,60.36
2019-04-06T16:50:16.982Z,60.36
2019-04-06T16:52:10.076Z,59.97
2019-04-06T16:53:09.903Z,60.36
2019-04-06T16:55:02.502Z,60.17
2019-04-06T16:56:02.418Z,60.94
2019-04-06T16:57:55.239Z,60.75
2019-04-06T16:58:55.311Z,60.33
2019-04-06T17:00:47.947Z,60.91
2019-04-06T17:01:48.182Z,60.81
2019-04-06T17:03:40.849Z,61.58
2019-04-06T17:04:40.666Z,61.97
2019-04-06T17:06:33.484Z,61.39
2019-04-06T17:07:33.538Z,61.39
2019-04-06T17:09:26.588Z,62.16
2019-04-06T17:10:26.396Z,62.74
2019-04-06T17:12:44.377Z,62.03
2019-04-06T17:13:44.433Z,62.03
2019-04-06T17:15:37.131Z,62.13
2019-04-06T17:16:37.333Z,62.03
2019-04-06T17:18:29.939Z,61.94
2019-04-06T17:19:30.558Z,63.48
2019-04-06T17:21:22.909Z,63.67
2019-04-06T17:22:22.534Z,63.48
2019-04-06T17:24:15.447Z,63.57
2019-04-06T17:25:15.260Z,63.48
2019-04-06T17:27:08.109Z,64.60
2019-04-06T17:28:07.994Z,64.12
2019-04-06T17:30:00.776Z,64.22
2019-04-06T17:31:01.159Z,64.40
2019-04-06T17:32:53.516Z,64.60
2019-04-06T17:33:53.441Z,64.31
2019-04-06T17:35:46.222Z,64.22
2019-04-06T17:36:46.498Z,64.50
2019-04-06T17:38:38.986Z,64.47
2019-04-06T17:39:39.083Z,64.56
2019-04-06T17:41:31.839Z,64.76
2019-04-06T17:42:31.654Z,64.95
2019-04-06T17:44:24.457Z,64.76
2019-04-06T17:45:24.404Z,65.62
2019-04-06T17:47:17.426Z,64.95
2019-04-06T17:48:17.198Z,64.95
2019-04-06T17:50:09.961Z,65.23
2019-04-06T17:51:10.160Z,65.05
2019-04-06T17:53:02.777Z,66.36
2019-04-06T17:54:02.664Z,65.97
2019-04-06T17:55:55.907Z,66.16
2019-04-06T17:56:55.387Z,65.49
2019-04-06T17:58:48.452Z,65.97
2019-04-06T17:59:48.176Z,66.64
2019-04-06T18:01:41.098Z,66.36
2019-04-06T18:02:47.832Z,65.88
2019-04-06T18:04:33.905Z,67.47
2019-04-06T18:05:33.699Z,67.76
2019-04-06T18:07:26.554Z,68.05
2019-04-06T18:08:26.303Z,67.76
2019-04-06T18:10:19.487Z,68.15
2019-04-06T18:11:19.340Z,68.05
2019-04-06T18:13:11.894Z,67.38
2019-04-06T18:14:12.406Z,67.96
2019-04-06T18:16:04.575Z,68.05
2019-04-06T18:17:04.506Z,68.53
2019-04-06T18:18:57.709Z,68.50
2019-04-06T18:19:57.301Z,68.50
2019-04-06T18:21:50.109Z,68.59
2019-04-06T18:22:50.197Z,68.79
2019-04-06T18:24:42.871Z,68.59
2019-04-06T18:25:42.780Z,68.69
2019-04-06T18:27:35.593Z,69.56
2019-04-06T18:28:35.526Z,68.59
2019-04-06T18:30:28.347Z,68.59
2019-04-06T18:31:28.295Z,68.50
2019-04-06T18:33:21.058Z,68.88